createdAt,value
2019-03-27T00:00:19.802Z,76.80
2019-03-27T00:02:48.819Z,78.40
2019-03-27T00:05:20.873Z,78.00
2019-03-27T00:07:49.892Z,77.80
2019-03-27T00:10:18.876Z,76.80
2019-03-27T00:12:47.859Z,78.70
2019-03-27T00:15:16.732Z,78.20
2019-03-27T00:17:45.607Z,78.90
2019-03-27T00:20:14.755Z,78.10
2019-03-27T00:22:44.034Z,78.10
2019-03-27T00:25:13.083Z,77.10
2019-03-27T00:27:43.599Z,78.80
2019-03-27T00:30:12.690Z,78.10
2019-03-27T00:32:41.653Z,76.80
2019-03-27T00:35:10.693Z,77.60
2019-03-27T00:37:39.726Z,77.30
2019-03-27T00:40:08.745Z,77.90
2019-03-27T00:42:37.900Z,78.50
2019-03-27T00:45:10.723Z,77.30
2019-03-27T00:47:39.766Z,76.90
2019-03-27T00:50:08.756Z,78.90
2019-03-27T00:52:37.649Z,78.10
2019-03-27T00:55:07.401Z,78.80
2019-03-27T00:57:36.306Z,78.30
2019-03-27T01:00:13.967Z,78.40
2019-03-27T01:02:43.136Z,78.10
2019-03-27T01:05:12.000Z,78.70
2019-03-27T01:07:41.021Z,78.00
2019-03-27T01:10:10.093Z,79.10
2019-03-27T01:12:39.031Z,78.50
2019-03-27T01:15:07.972Z,78.90
2019-03-27T01:17:36.896Z,78.70
2019-03-27T01:20:06.463Z,79.50
2019-03-27T01:22:35.762Z,80.10
2019-03-27T01:25:06.132Z,79.60
2019-03-27T01:27:35.803Z,79.30
2019-03-27T01:30:05.541Z,79.90
2019-03-27T01:32:34.726Z,79.20
2019-03-27T01:35:03.585Z,79.70
2019-03-27T01:37:32.578Z,79.80
2019-03-27T01:40:01.428Z,80.50
2019-03-27T01:42:33.074Z,79.80
2019-03-27T01:45:02.100Z,80.20
2019-03-27T01:47:31.033Z,79.80
2019-03-27T01:49:59.930Z,80.00
2019-03-27T01:52:29.031Z,81.60
2019-03-27T01:54:57.908Z,82.00
2019-03-27T01:57:28.089Z,83.80
2019-03-27T01:59:57.255Z,83.60
2019-03-27T02:02:29.212Z,84.80
2019-03-27T02:04:58.093Z,84.70
2019-03-27T02:07:27.038Z,83.00
2019-03-27T02:09:55.958Z,82.10
2019-03-27T02:12:24.775Z,82.70
2019-03-27T02:14:53.607Z,83.50
2019-03-27T02:17:22.642Z,83.00
2019-03-27T02:19:51.730Z,83.00
2019-03-27T02:22:23.466Z,84.00
2019-03-27T02:24:52.311Z,83.40
2019-03-27T02:27:21.333Z,83.70
2019-03-27T02:29:50.203Z,84.60
2019-03-27T02:32:20.945Z,85.10
2019-03-27T02:34:49.942Z,85.00
2019-03-27T02:37:18.898Z,86.10
2019-03-27T02:39:50.497Z,85.50
2019-03-27T02:42:19.340Z,85.30
2019-03-27T02:44:48.389Z,86.00
2019-03-27T02:47:17.283Z,86.40
2019-03-27T02:49:46.422Z,86.70
2019-03-27T02:52:15.432Z,87.30
2019-03-27T02:54:44.396Z,88.30
2019-03-27T02:57:13.481Z,85.80
2019-03-27T02:59:42.476Z,85.80
2019-03-27T03:02:11.549Z,87.20
2019-03-27T03:04:40.571Z,87.70
2019-03-27T03:07:09.478Z,87.60
2019-03-27T03:09:38.383Z,88.70
2019-03-27T03:12:07.335Z,87.90
2019-03-27T03:14:36.160Z,88.30
2019-03-27T03:17:05.196Z,88.40
2019-03-27T03:19:34.238Z,87.40
2019-03-27T03:22:03.238Z,88.10
2019-03-27T03:24:32.273Z,88.70
2019-03-27T03:27:01.341Z,89.40
2019-03-27T03:29:30.306Z,88.70
2019-03-27T03:31:59.291Z,89.70
2019-03-27T03:34:28.345Z,89.90
2019-03-27T03:36:57.270Z,89.30
2019-03-27T03:39:26.177Z,89.70
2019-03-27T03:41:55.048Z,90.30
2019-03-27T03:44:24.018Z,91.00
2019-03-27T03:47:00.046Z,89.60
2019-03-27T03:49:23.683Z,90.10
2019-03-27T03:51:52.781Z,90.30
2019-03-27T03:54:22.192Z,90.70
2019-03-27T03:56:52.513Z,90.40
2019-03-27T03:59:22.124Z,89.60
2019-03-27T04:01:53.482Z,89.60
2019-03-27T04:04:22.772Z,90.00
2019-03-27T04:06:51.638Z,90.20
2019-03-27T04:09:20.620Z,90.10
2019-03-27T04:11:49.499Z,88.60
2019-03-27T04:14:18.406Z,88.50
2019-03-27T04:16:49.273Z,86.90
2019-03-27T04:19:18.417Z,87.20
2019-03-27T04:21:47.790Z,88.20
2019-03-27T04:24:16.828Z,89.10
2019-03-27T04:26:45.647Z,88.70
2019-03-27T04:29:14.491Z,89.20
2019-03-27T04:31:43.322Z,89.00
2019-03-27T04:34:12.190Z,89.70
2019-03-27T04:36:41.177Z,89.80
2019-03-27T04:39:10.231Z,89.60
2019-03-27T04:41:39.062Z,89.50
2019-03-27T04:44:07.995Z,90.10
2019-03-27T04:46:36.922Z,90.20
2019-03-27T04:49:07.661Z,90.30
2019-03-27T04:51:36.429Z,90.50
2019-03-27T04:54:05.317Z,91.00
2019-03-27T04:56:34.157Z,90.50
2019-03-27T04:59:03.134Z,90.50
2019-03-27T05:01:32.081Z,90.50
2019-03-27T05:04:01.503Z,91.10
2019-03-27T05:06:30.401Z,90.80
2019-03-27T05:08:59.428Z,90.40
2019-03-27T05:11:28.365Z,90.60
2019-03-27T05:13:57.192Z,90.90
2019-03-27T05:16:26.032Z,91.10
2019-03-27T05:18:55.098Z,91.30
2019-03-27T05:21:23.990Z,91.00
2019-03-27T05:23:52.870Z,91.00
2019-03-27T05:26:21.921Z,91.20
2019-03-27T05:28:50.832Z,91.50
2019-03-27T05:31:19.727Z,91.30
2019-03-27T05:33:49.015Z,91.10
2019-03-27T05:36:17.940Z,91.00
2019-03-27T05:38:48.404Z,90.80
2019-03-27T05:41:17.308Z,90.70
2019-03-27T05:43:46.316Z,90.80
2019-03-27T05:46:15.413Z,91.10
2019-03-27T05:48:44.538Z,91.10
2019-03-27T05:51:13.377Z,91.60
2019-03-27T05:53:42.236Z,91.60
2019-03-27T05:56:11.228Z,91.40
2019-03-27T05:58:40.492Z,91.40
2019-03-27T06:01:09.515Z,91.50
2019-03-27T06:03:38.350Z,91.50
2019-03-27T06:06:09.215Z,91.10
2019-03-27T06:08:38.108Z,91.10
2019-03-27T06:11:07.037Z,90.40
2019-03-27T06:13:38.916Z,88.90
2019-03-27T06:16:07.773Z,88.50
2019-03-27T06:18:36.593Z,88.30
2019-03-27T06:21:05.438Z,87.90
2019-03-27T06:23:34.239Z,87.40
2019-03-27T06:26:06.178Z,87.90
2019-03-27T06:28:35.239Z,89.50
2019-03-27T06:31:04.212Z,89.40
2019-03-27T06:33:33.036Z,89.30
2019-03-27T06:36:01.957Z,89.20
2019-03-27T06:38:31.054Z,88.80
2019-03-27T06:40:59.881Z,89.20
2019-03-27T06:43:28.784Z,88.30
2019-03-27T06:45:58.517Z,88.40
2019-03-27T06:48:27.630Z,87.60
2019-03-27T06:50:56.506Z,88.20
2019-03-27T06:53:28.365Z,87.80
2019-03-27T06:55:57.149Z,87.90
2019-03-27T06:58:31.514Z,87.50
2019-03-27T07:01:00.951Z,87.30
2019-03-27T07:03:29.909Z,86.30
2019-03-27T07:05:58.819Z,86.30
2019-03-27T07:08:27.804Z,86.40
2019-03-27T07:10:56.834Z,86.10
2019-03-27T07:13:25.690Z,85.40
2019-03-27T07:15:54.545Z,85.60
2019-03-27T07:18:23.473Z,85.60
2019-03-27T07:20:52.277Z,84.60
2019-03-27T07:23:21.221Z,85.20
2019-03-27T07:25:50.316Z,88.60
2019-03-27T07:28:19.200Z,84.90
2019-03-27T07:30:48.188Z,82.60
2019-03-27T07:33:17.067Z,82.30
2019-03-27T07:35:46.075Z,82.00
2019-03-27T07:38:45.558Z,80.50
2019-03-27T07:40:56.061Z,77.80
2019-03-27T07:43:24.871Z,77.80
2019-03-27T07:45:53.938Z,78.20
2019-03-27T07:48:22.790Z,78.10
2019-03-27T07:50:51.616Z,78.80
2019-03-27T07:53:22.481Z,79.80
2019-03-27T07:55:51.221Z,78.90
2019-03-27T07:58:20.037Z,76.90
2019-03-27T08:00:48.892Z,76.30
2019-03-27T08:03:17.719Z,77.30
2019-03-27T08:05:46.573Z,76.50
2019-03-27T08:08:15.426Z,76.20
2019-03-27T08:10:44.302Z,75.10
2019-03-27T08:13:13.128Z,75.80
2019-03-27T08:16:01.379Z,74.50
2019-03-27T08:18:30.318Z,73.90
2019-03-27T08:20:59.319Z,70.20
2019-03-27T08:23:28.397Z,69.40
2019-03-27T08:25:57.315Z,70.20
2019-03-27T08:28:26.196Z,68.70
2019-03-27T08:30:55.223Z,64.90
2019-03-27T08:33:24.237Z,63.80
2019-03-27T08:35:53.150Z,63.70
2019-03-27T08:38:24.891Z,58.60
2019-03-27T08:40:53.885Z,57.00
2019-03-27T08:43:25.489Z,53.90
2019-03-27T08:45:53.219Z,52.50
2019-03-27T08:48:22.036Z,52.50
2019-03-27T08:50:50.961Z,51.50
2019-03-27T08:53:19.763Z,50.00
2019-03-27T08:55:48.768Z,52.70
2019-03-27T08:58:17.578Z,51.60
2019-03-27T09:00:50.918Z,51.50
2019-03-27T09:03:19.836Z,51.60
2019-03-27T09:05:48.998Z,51.30
2019-03-27T09:08:18.148Z,52.10
2019-03-27T09:10:47.019Z,52.00
2019-03-27T09:13:15.926Z,51.60
2019-03-27T09:15:45.086Z,51.00
2019-03-27T09:18:16.793Z,51.00
2019-03-27T09:20:44.522Z,52.20
2019-03-27T09:23:13.375Z,51.70
2019-03-27T09:25:42.292Z,50.40
2019-03-27T09:28:11.167Z,52.90
2019-03-27T09:30:40.144Z,50.50
2019-03-27T09:33:09.044Z,51.60
2019-03-27T09:35:38.166Z,50.50
2019-03-27T09:38:07.158Z,51.70
2019-03-27T09:40:36.159Z,53.90
2019-03-27T09:43:05.107Z,54.00
2019-03-27T09:45:34.072Z,54.80
2019-03-27T09:48:02.932Z,55.20
2019-03-27T09:50:31.732Z,56.20
2019-03-27T09:53:00.781Z,57.70
2019-03-27T09:55:29.719Z,57.40
2019-03-27T09:57:58.962Z,57.00
2019-03-27T10:00:46.074Z,56.50
2019-03-27T10:03:15.523Z,55.90
2019-03-27T10:05:44.620Z,53.90
2019-03-27T10:08:13.580Z,55.20
2019-03-27T10:10:42.556Z,55.70
2019-03-27T10:13:11.539Z,56.00
2019-03-27T10:15:40.478Z,56.10
2019-03-27T10:18:09.371Z,55.00
2019-03-27T10:20:38.345Z,55.30
2019-03-27T10:23:07.215Z,54.10
2019-03-27T10:25:36.364Z,54.60
2019-03-27T10:28:05.223Z,55.50
2019-03-27T10:30:34.326Z,56.50
2019-03-27T10:33:03.136Z,55.90
2019-03-27T10:35:32.122Z,55.50
2019-03-27T10:38:01.028Z,54.10
2019-03-27T10:40:29.847Z,53.50
2019-03-27T10:42:58.710Z,53.60
2019-03-27T10:45:27.624Z,54.40
2019-03-27T10:47:56.417Z,52.40
2019-03-27T10:50:25.317Z,51.50
2019-03-27T10:52:54.107Z,52.40
2019-03-27T10:55:23.237Z,52.50
2019-03-27T10:57:52.061Z,52.50
2019-03-27T11:00:21.528Z,52.90
2019-03-27T11:02:50.392Z,53.90
2019-03-27T11:05:19.430Z,54.60
2019-03-27T11:07:48.351Z,54.10
2019-03-27T11:10:17.181Z,53.90
2019-03-27T11:12:46.130Z,53.80
2019-03-27T11:15:15.006Z,54.30
2019-03-27T11:17:44.010Z,54.90
2019-03-27T11:20:13.881Z,54.40
2019-03-27T11:22:42.703Z,54.00
2019-03-27T11:25:11.627Z,52.50
2019-03-27T11:27:40.693Z,52.70
2019-03-27T11:30:09.549Z,53.20
2019-03-27T11:32:38.445Z,52.90
2019-03-27T11:35:07.370Z,53.40
2019-03-27T11:37:36.700Z,54.50
2019-03-27T11:40:06.034Z,54.10
2019-03-27T11:42:34.969Z,53.30
2019-03-27T11:45:05.903Z,54.20
2019-03-27T11:47:34.833Z,54.20
2019-03-27T11:50:05.259Z,52.40
2019-03-27T11:52:34.126Z,50.60
2019-03-27T11:55:03.101Z,49.20
2019-03-27T11:57:33.812Z,50.00
2019-03-27T12:00:08.282Z,50.20
2019-03-27T12:02:37.627Z,50.40
2019-03-27T12:05:07.139Z,50.20
2019-03-27T12:07:35.965Z,50.30
2019-03-27T12:10:07.960Z,48.80
2019-03-27T12:12:36.777Z,47.90
2019-03-27T12:15:06.670Z,47.40
2019-03-27T12:17:35.688Z,47.20
2019-03-27T12:20:05.517Z,45.50
2019-03-27T12:22:34.515Z,46.30
2019-03-27T12:25:03.890Z,46.90
2019-03-27T12:27:32.953Z,47.80
2019-03-27T12:30:01.806Z,48.20
2019-03-27T12:32:30.655Z,49.20
2019-03-27T12:34:59.821Z,48.40
2019-03-27T12:37:28.898Z,47.30
2019-03-27T12:39:57.796Z,45.90
2019-03-27T12:42:26.581Z,46.10
2019-03-27T12:44:55.428Z,46.10
2019-03-27T12:47:24.350Z,45.90
2019-03-27T12:49:53.274Z,43.60
2019-03-27T12:52:22.148Z,42.50
2019-03-27T12:54:51.213Z,42.80
2019-03-27T12:57:20.013Z,42.30
2019-03-27T12:59:50.614Z,42.80
2019-03-27T13:02:19.449Z,42.00
2019-03-27T13:04:48.341Z,43.50
2019-03-27T13:07:17.343Z,42.60
2019-03-27T13:09:46.455Z,44.30
2019-03-27T13:12:15.272Z,44.60
2019-03-27T13:14:44.185Z,45.10
2019-03-27T13:17:13.344Z,44.20
2019-03-27T13:19:42.268Z,44.20
2019-03-27T13:22:11.196Z,43.30
2019-03-27T13:24:39.971Z,42.60
2019-03-27T13:27:09.253Z,42.10
2019-03-27T13:29:38.142Z,42.10
2019-03-27T13:32:07.105Z,42.90
2019-03-27T13:34:36.520Z,41.40
2019-03-27T13:37:05.360Z,41.40
2019-03-27T13:39:34.149Z,41.50
2019-03-27T13:42:03.004Z,41.20
2019-03-27T13:44:37.202Z,40.50
2019-03-27T13:47:02.521Z,37.90
2019-03-27T13:49:31.519Z,38.70
2019-03-27T13:52:01.816Z,39.00
2019-03-27T13:54:30.694Z,38.90
2019-03-27T13:56:59.697Z,39.50
2019-03-27T13:59:28.505Z,39.40
2019-03-27T14:01:57.349Z,39.40
2019-03-27T14:04:26.244Z,39.40
2019-03-27T14:06:55.150Z,39.80
2019-03-27T14:09:24.127Z,39.40
2019-03-27T14:11:53.179Z,39.10
2019-03-27T14:14:21.993Z,37.60
2019-03-27T14:16:51.057Z,37.40
2019-03-27T14:19:20.044Z,38.80
2019-03-27T14:21:54.903Z,38.00
2019-03-27T14:24:23.441Z,38.80
2019-03-27T14:26:52.324Z,40.00
2019-03-27T14:29:21.202Z,39.40
2019-03-27T14:31:50.196Z,38.80
2019-03-27T14:34:19.718Z,39.40
2019-03-27T14:36:48.918Z,39.50
2019-03-27T14:39:17.852Z,39.30
2019-03-27T14:41:46.759Z,39.20
2019-03-27T14:44:15.603Z,39.00
2019-03-27T14:46:44.447Z,39.70
2019-03-27T14:49:13.411Z,39.80
2019-03-27T14:51:42.285Z,40.60
2019-03-27T14:54:11.207Z,42.00
2019-03-27T14:56:40.071Z,42.30
2019-03-27T14:59:08.913Z,42.50
2019-03-27T15:01:37.848Z,42.70
2019-03-27T15:04:06.817Z,43.10
2019-03-27T15:06:35.647Z,43.80
2019-03-27T15:09:06.697Z,44.30
2019-03-27T15:11:35.549Z,44.60
2019-03-27T15:14:04.769Z,45.10
2019-03-27T15:16:34.082Z,46.60
2019-03-27T15:19:03.276Z,46.90
2019-03-27T15:21:32.150Z,47.00
2019-03-27T15:24:01.038Z,47.60
2019-03-27T15:26:30.149Z,47.00
2019-03-27T15:28:59.112Z,48.10
2019-03-27T15:31:28.009Z,48.40
2019-03-27T15:33:56.938Z,48.70
2019-03-27T15:36:25.765Z,49.30
2019-03-27T15:38:57.257Z,49.30
2019-03-27T15:41:26.097Z,48.90
2019-03-27T15:43:55.282Z,49.70
2019-03-27T15:46:24.194Z,49.80
2019-03-27T15:48:53.159Z,49.90
2019-03-27T15:51:22.001Z,50.20
2019-03-27T15:53:50.920Z,50.20
2019-03-27T15:56:19.748Z,49.80
2019-03-27T15:58:48.709Z,49.70
2019-03-27T16:01:17.559Z,50.70
2019-03-27T16:03:46.428Z,50.90
2019-03-27T16:06:15.382Z,51.00
2019-03-27T16:08:44.164Z,50.10
2019-03-27T16:11:13.128Z,50.90
2019-03-27T16:13:42.041Z,50.50
2019-03-27T16:16:10.891Z,51.50
2019-03-27T16:18:39.866Z,51.60
2019-03-27T16:21:08.743Z,50.90
2019-03-27T16:23:37.917Z,50.10
2019-03-27T16:26:06.761Z,50.00
2019-03-27T16:28:35.857Z,49.70
2019-03-27T16:31:05.010Z,50.50
2019-03-27T16:33:34.041Z,50.40
2019-03-27T16:36:03.089Z,50.70
2019-03-27T16:38:31.896Z,50.80
2019-03-27T16:41:00.938Z,51.20
2019-03-27T16:43:29.849Z,52.40
2019-03-27T16:45:59.192Z,52.40
2019-03-27T16:48:28.078Z,52.60
2019-03-27T16:50:56.967Z,52.70
2019-03-27T16:53:25.929Z,53.50
2019-03-27T16:55:55.066Z,53.40
2019-03-27T16:58:24.035Z,52.90
2019-03-27T17:00:52.998Z,52.40
2019-03-27T17:03:21.978Z,52.00
2019-03-27T17:05:54.299Z,51.70
2019-03-27T17:08:21.870Z,52.70
2019-03-27T17:10:50.826Z,53.40
2019-03-27T17:13:19.928Z,53.90
2019-03-27T17:15:48.849Z,53.70
2019-03-27T17:18:17.771Z,54.00
2019-03-27T17:20:46.732Z,54.50
2019-03-27T17:23:18.351Z,55.00
2019-03-27T17:25:46.620Z,54.40
2019-03-27T17:28:17.154Z,54.60
2019-03-27T17:30:46.177Z,55.20
2019-03-27T17:33:15.309Z,54.80
2019-03-27T17:35:44.273Z,54.80
2019-03-27T17:38:13.146Z,54.60
2019-03-27T17:40:42.054Z,54.60
2019-03-27T17:43:11.009Z,55.40
2019-03-27T17:45:39.864Z,55.90
2019-03-27T17:48:08.655Z,56.50
2019-03-27T17:50:37.605Z,56.50
2019-03-27T17:53:06.500Z,57.10
2019-03-27T17:55:35.406Z,56.70
2019-03-27T17:58:05.306Z,57.30
2019-03-27T18:00:44.928Z,57.30
2019-03-27T18:03:14.010Z,57.40
2019-03-27T18:05:43.029Z,58.20
2019-03-27T18:08:11.825Z,58.50
2019-03-27T18:10:46.016Z,59.20
2019-03-27T18:13:14.285Z,58.80
2019-03-27T18:15:43.156Z,59.20
2019-03-27T18:18:12.186Z,59.40
2019-03-27T18:20:41.159Z,60.50
2019-03-27T18:23:09.988Z,62.20
2019-03-27T18:25:39.100Z,62.00
2019-03-27T18:28:08.320Z,62.10
2019-03-27T18:30:37.426Z,62.10
2019-03-27T18:33:06.455Z,62.00
2019-03-27T18:35:35.264Z,63.70
2019-03-27T18:38:04.773Z,63.10
2019-03-27T18:40:36.386Z,63.60
2019-03-27T18:43:05.489Z,63.40
2019-03-27T18:45:34.329Z,63.50
2019-03-27T18:48:03.400Z,61.70
2019-03-27T18:50:32.424Z,62.00
2019-03-27T18:53:01.524Z,65.30
2019-03-27T18:55:30.523Z,65.30
2019-03-27T18:58:00.756Z,63.30
2019-03-27T19:00:29.963Z,63.40
2019-03-27T19:02:59.074Z,64.00
2019-03-27T19:05:28.003Z,65.10
2019-03-27T19:07:57.060Z,65.60
2019-03-27T19:10:25.989Z,65.40
2019-03-27T19:12:56.655Z,65.70
2019-03-27T19:15:25.791Z,66.00
2019-03-27T19:17:54.706Z,65.40
2019-03-27T19:20:26.770Z,65.80
2019-03-27T19:22:55.712Z,66.60
2019-03-27T19:25:24.978Z,66.70
2019-03-27T19:27:54.179Z,67.10
2019-03-27T19:30:23.287Z,67.20
2019-03-27T19:32:52.261Z,67.30
2019-03-27T19:35:21.202Z,68.10
2019-03-27T19:37:50.090Z,68.20
2019-03-27T19:40:19.227Z,67.80
2019-03-27T19:42:48.385Z,70.80
2019-03-27T19:45:17.657Z,67.30
2019-03-27T19:47:46.827Z,69.10
2019-03-27T19:50:15.718Z,69.00
2019-03-27T19:52:44.647Z,69.50
2019-03-27T19:55:13.527Z,68.90
2019-03-27T19:57:42.415Z,69.50
2019-03-27T20:00:11.404Z,70.10
2019-03-27T20:02:40.407Z,69.10
2019-03-27T20:05:09.601Z,68.40
2019-03-27T20:07:41.288Z,68.70
2019-03-27T20:10:16.017Z,68.20
2019-03-27T20:12:45.078Z,68.50
2019-03-27T20:15:14.149Z,68.30
2019-03-27T20:17:43.015Z,69.10
2019-03-27T20:20:12.754Z,69.60
2019-03-27T20:22:41.818Z,69.80
2019-03-27T20:25:14.424Z,69.70
2019-03-27T20:27:41.686Z,69.50
2019-03-27T20:30:18.479Z,69.40
2019-03-27T20:32:47.748Z,68.80
2019-03-27T20:35:16.704Z,69.40
2019-03-27T20:37:45.735Z,69.20
2019-03-27T20:40:14.625Z,70.00
2019-03-27T20:42:43.772Z,70.50
2019-03-27T20:45:12.832Z,70.10
2019-03-27T20:47:41.771Z,69.60
2019-03-27T20:50:10.729Z,70.10
2019-03-27T20:52:39.645Z,70.10
2019-03-27T20:55:08.695Z,70.80
2019-03-27T20:57:37.792Z,71.20
2019-03-27T21:00:07.263Z,71.60
2019-03-27T21:02:36.311Z,71.30
2019-03-27T21:05:06.722Z,71.70
2019-03-27T21:07:35.736Z,71.90
2019-03-27T21:10:06.718Z,71.60
2019-03-27T21:12:35.726Z,71.60
2019-03-27T21:15:06.098Z,71.30
2019-03-27T21:17:34.988Z,71.10
2019-03-27T21:20:06.726Z,71.30
2019-03-27T21:22:35.689Z,71.90
2019-03-27T21:25:08.924Z,73.40
2019-03-27T21:27:36.797Z,72.50
2019-03-27T21:30:09.355Z,72.50
2019-03-27T21:32:38.251Z,72.90
2019-03-27T21:35:07.201Z,73.20
2019-03-27T21:37:37.206Z,73.50
2019-03-27T21:40:18.351Z,73.80
2019-03-27T21:42:47.345Z,73.30
2019-03-27T21:45:19.796Z,73.10
2019-03-27T21:47:48.884Z,73.80
2019-03-27T21:50:18.005Z,73.40
2019-03-27T21:52:59.484Z,74.20
2019-03-27T21:55:22.934Z,74.70
2019-03-27T21:57:48.234Z,74.20
2019-03-27T22:00:20.464Z,75.00
2019-03-27T22:02:49.418Z,75.10
2019-03-27T22:05:18.377Z,74.40
2019-03-27T22:07:47.240Z,74.10
2019-03-27T22:10:17.768Z,73.60
2019-03-27T22:12:48.269Z,73.80
2019-03-27T22:15:17.205Z,74.60
2019-03-27T22:17:46.143Z,74.50
2019-03-27T22:20:15.242Z,75.40
2019-03-27T22:22:44.318Z,75.30
2019-03-27T22:25:13.181Z,76.90
2019-03-27T22:27:42.110Z,76.90
2019-03-27T22:30:11.175Z,77.00
2019-03-27T22:32:40.143Z,77.00
2019-03-27T22:35:09.120Z,76.70
2019-03-27T22:37:38.047Z,76.50
2019-03-27T22:40:07.349Z,77.20
2019-03-27T22:42:36.307Z,76.10
2019-03-27T22:45:05.675Z,76.70
2019-03-27T22:47:34.686Z,77.10
2019-03-27T22:50:08.010Z,77.40
2019-03-27T22:52:36.009Z,77.20
2019-03-27T22:55:07.213Z,76.90
2019-03-27T22:57:37.720Z,76.60
2019-03-27T23:00:11.207Z,77.00
2019-03-27T23:02:40.369Z,76.00
2019-03-27T23:05:09.374Z,76.00
2019-03-27T23:07:39.452Z,75.60
2019-03-27T23:10:08.386Z,75.70
2019-03-27T23:12:38.667Z,75.70
2019-03-27T23:15:09.235Z,76.10
2019-03-27T23:17:38.241Z,76.50
2019-03-27T23:20:07.706Z,77.30
2019-03-27T23:22:36.520Z,76.60
2019-03-27T23:25:05.936Z,78.30
2019-03-27T23:27:34.919Z,78.70
2019-03-27T23:30:06.127Z,79.20
2019-03-27T23:32:35.415Z,80.10
2019-03-27T23:35:06.459Z,81.00
2019-03-27T23:37:35.456Z,80.30
2019-03-27T23:40:05.311Z,80.50
2019-03-27T23:42:34.735Z,80.50
2019-03-27T23:45:04.402Z,81.30
2019-03-27T23:47:33.618Z,80.90
2019-03-27T23:50:02.830Z,82.20
2019-03-27T23:52:31.784Z,82.10
2019-03-27T23:55:03.910Z,80.80
2019-03-27T23:57:32.914Z,81.30
